Time;durP1;ratioP1;P1;durP2;ratioP2;P2;SDS_P1;SDS_P2;PMS_P1;PMS_P2;Temp;Humidity;BMP_temperature;BMP_pressure;BME280_temperature;BME280_humidity;BME280_pressure;Samples;Min_cycle;Max_cycle;Signal;HPM_P1;HPM_P2
2023/05/20 00:00:48;;;;;;;8.53;4.10;;;14.60;28.10;;;;;;5038982;28;20569;-69
2023/05/20 00:03:14;;;;;;;7.37;4.77;;;14.60;28.00;;;;;;5048029;28;20482;-68
2023/05/20 00:05:41;;;;;;;8.07;4.50;;;14.60;27.90;;;;;;5042460;28;20825;-69
2023/05/20 00:08:08;;;;;;;6.67;4.20;;;14.60;27.80;;;;;;5040786;28;20473;-68
2023/05/20 00:10:35;;;;;;;6.40;4.03;;;14.50;27.80;;;;;;5042785;28;20466;-68
2023/05/20 00:13:02;;;;;;;7.10;4.23;;;14.50;27.90;;;;;;5034337;28;20478;-69
2023/05/20 00:15:30;;;;;;;7.50;4.20;;;14.50;28.00;;;;;;5039981;28;20454;-68
2023/05/20 00:17:57;;;;;;;7.70;4.53;;;14.50;27.90;;;;;;5046739;28;20466;-69
2023/05/20 00:20:24;;;;;;;8.00;4.67;;;14.50;28.00;;;;;;5043475;28;20490;-68
2023/05/20 00:22:51;;;;;;;6.60;4.40;;;14.50;28.10;;;;;;5045158;28;20497;-68
2023/05/20 00:25:17;;;;;;;6.40;3.83;;;14.50;28.00;;;;;;5042598;28;20567;-68
2023/05/20 00:27:45;;;;;;;7.83;4.17;;;14.50;27.90;;;;;;5044426;28;20912;-68
2023/05/20 00:30:12;;;;;;;8.17;5.00;;;14.50;28.00;;;;;;5046694;28;20477;-67
2023/05/20 00:32:40;;;;;;;8.83;4.87;;;14.50;28.00;;;;;;5042991;28;20478;-68
2023/05/20 00:35:08;;;;;;;6.20;3.83;;;14.50;28.20;;;;;;5039228;28;20475;-67
2023/05/20 00:37:34;;;;;;;9.20;4.67;;;14.40;28.30;;;;;;5042712;28;20554;-68
2023/05/20 00:40:01;;;;;;;8.63;5.17;;;14.40;28.20;;;;;;5043676;28;20854;-67
2023/05/20 00:42:29;;;;;;;6.40;4.03;;;14.40;28.20;;;;;;5043088;28;20903;-68
2023/05/20 00:44:56;;;;;;;6.50;3.83;;;14.40;28.40;;;;;;5047863;28;20473;-68
2023/05/20 00:47:28;;;;;;;7.67;4.43;;;14.30;28.40;;;;;;5039245;28;20477;-68
2023/05/20 00:49:56;;;;;;;8.53;4.17;;;14.30;28.50;;;;;;5029083;28;20470;-68
2023/05/20 00:52:23;;;;;;;6.70;4.37;;;14.30;28.60;;;;;;5042883;28;20920;-70
2023/05/20 00:54:50;;;;;;;6.50;4.13;;;14.20;28.80;;;;;;5042507;28;20470;-68
2023/05/20 00:57:18;;;;;;;8.93;4.27;;;14.20;28.80;;;;;;5043401;28;20465;-68
2023/05/20 00:59:45;;;;;;;6.50;4.53;;;14.20;29.00;;;;;;5043297;28;20468;-67
2023/05/20 01:02:12;;;;;;;7.60;4.80;;;14.20;29.00;;;;;;5039337;28;20485;-68
2023/05/20 01:04:39;;;;;;;8.33;4.63;;;14.10;29.20;;;;;;5043070;28;20482;-68
2023/05/20 01:07:07;;;;;;;10.80;5.20;;;14.10;29.20;;;;;;5045067;28;20977;-68
2023/05/20 01:09:34;;;;;;;10.83;5.23;;;14.00;29.40;;;;;;5043360;28;20481;-68
2023/05/20 01:12:08;;;;;;;7.27;4.70;;;14.00;29.60;;;;;;5045128;28;22720;-68
2023/05/20 01:14:40;;;;;;;6.80;4.53;;;14.00;29.80;;;;;;5046522;28;21049;-68
2023/05/20 01:17:11;;;;;;;7.37;4.70;;;14.00;29.90;;;;;;5043171;28;20814;-68
2023/05/20 01:19:42;;;;;;;7.60;4.70;;;14.00;29.90;;;;;;5042455;28;21159;-69
2023/05/20 01:22:12;;;;;;;7.17;4.93;;;14.00;30.10;;;;;;5043576;28;20488;-68
2023/05/20 01:24:41;;;;;;;8.27;5.27;;;14.10;30.20;;;;;;5045308;28;20462;-68
2023/05/20 01:27:10;;;;;;;7.53;4.37;;;14.10;30.20;;;;;;5041970;28;20501;-69
2023/05/20 01:29:37;;;;;;;10.67;5.57;;;14.10;30.30;;;;;;5046666;28;20776;-68
2023/05/20 01:32:08;;;;;;;7.87;5.20;;;14.10;30.40;;;;;;5044373;28;20489;-68
2023/05/20 01:34:37;;;;;;;8.13;4.97;;;14.10;30.60;;;;;;5039871;28;20470;-68
2023/05/20 01:37:05;;;;;;;7.30;4.60;;;14.10;30.50;;;;;;5043893;28;20470;-67
2023/05/20 01:39:35;;;;;;;6.47;4.60;;;14.10;30.50;;;;;;5044610;28;20474;-69
2023/05/20 01:42:05;;;;;;;10.40;5.50;;;14.10;30.50;;;;;;5046352;28;20557;-67
2023/05/20 01:44:32;;;;;;;7.67;5.00;;;14.10;30.80;;;;;;5040015;28;20501;-67
2023/05/20 01:47:00;;;;;;;8.40;4.83;;;14.10;30.80;;;;;;5045062;28;20992;-68
2023/05/20 01:49:26;;;;;;;6.80;4.77;;;14.10;31.00;;;;;;5045827;28;20473;-68
2023/05/20 01:51:53;;;;;;;7.30;4.70;;;14.10;30.90;;;;;;5051824;28;20490;-67
2023/05/20 01:54:20;;;;;;;8.30;5.27;;;14.10;30.90;;;;;;5055228;28;20532;-67
2023/05/20 01:56:47;;;;;;;7.63;5.80;;;14.10;31.00;;;;;;5046411;28;20462;-69
2023/05/20 01:59:15;;;;;;;7.50;5.40;;;14.10;30.80;;;;;;5048762;28;20468;-67
2023/05/20 02:01:42;;;;;;;8.37;4.80;;;14.10;31.00;;;;;;5046318;28;20989;-67
2023/05/20 02:04:09;;;;;;;7.97;5.00;;;14.10;30.90;;;;;;5045681;28;20863;-68
2023/05/20 02:06:35;;;;;;;7.63;5.03;;;14.10;30.90;;;;;;5042784;28;20462;-69
2023/05/20 02:09:03;;;;;;;9.37;5.50;;;14.10;30.90;;;;;;5043500;28;20462;-68
2023/05/20 02:11:29;;;;;;;11.20;4.87;;;14.10;30.90;;;;;;5042311;28;20581;-68
2023/05/20 02:13:56;;;;;;;8.37;5.17;;;14.10;30.90;;;;;;5044027;28;20477;-68
2023/05/20 02:16:24;;;;;;;8.20;5.10;;;14.10;30.80;;;;;;5046055;28;20972;-69
2023/05/20 02:18:51;;;;;;;9.33;5.73;;;14.10;30.80;;;;;;5049056;28;20952;-69
2023/05/20 02:21:18;;;;;;;9.70;5.03;;;14.10;30.80;;;;;;5043765;28;20484;-68
2023/05/20 02:23:45;;;;;;;7.90;4.73;;;14.10;30.80;;;;;;5043843;28;20486;-68
2023/05/20 02:26:12;;;;;;;8.30;6.30;;;14.10;30.80;;;;;;5048025;28;20473;-69
2023/05/20 02:28:42;;;;;;;7.63;4.90;;;14.10;30.80;;;;;;5046683;28;20473;-68
2023/05/20 02:31:09;;;;;;;8.90;5.60;;;14.10;30.90;;;;;;5045606;28;20498;-67
2023/05/20 02:33:37;;;;;;;8.57;4.73;;;14.10;31.10;;;;;;5047411;28;20478;-68
2023/05/20 02:36:04;;;;;;;7.93;5.23;;;14.10;31.00;;;;;;5044317;28;20474;-67
2023/05/20 02:38:31;;;;;;;8.63;5.57;;;14.10;31.10;;;;;;5040148;28;20462;-68
2023/05/20 02:40:58;;;;;;;8.37;5.00;;;14.10;31.30;;;;;;5048233;28;20476;-68
2023/05/20 02:43:25;;;;;;;8.10;5.93;;;14.00;31.30;;;;;;5047325;28;20848;-68
2023/05/20 02:45:52;;;;;;;8.00;5.43;;;14.00;31.40;;;;;;5045356;28;20494;-67
2023/05/20 02:48:18;;;;;;;8.37;5.70;;;14.00;31.50;;;;;;5047775;28;20470;-68
2023/05/20 02:50:47;;;;;;;9.40;5.53;;;14.10;31.40;;;;;;5048418;28;20477;-67
2023/05/20 02:53:13;;;;;;;7.67;5.13;;;14.00;31.40;;;;;;5047903;28;20490;-68
2023/05/20 02:55:40;;;;;;;8.10;5.17;;;14.00;31.50;;;;;;5046999;28;20471;-69
2023/05/20 02:58:07;;;;;;;7.43;5.40;;;14.00;31.60;;;;;;5047926;28;20462;-68
2023/05/20 03:00:39;;;;;;;7.40;5.30;;;14.00;31.70;;;;;;5043060;28;20978;-68
2023/05/20 03:03:06;;;;;;;7.63;5.43;;;14.00;31.70;;;;;;5041660;28;20477;-68
2023/05/20 03:05:36;;;;;;;8.10;5.10;;;14.00;31.70;;;;;;5046623;28;21083;-68
2023/05/20 03:08:08;;;;;;;8.30;5.53;;;14.00;32.00;;;;;;5047519;28;20466;-68
2023/05/20 03:10:35;;;;;;;8.17;5.10;;;14.00;32.00;;;;;;5043675;28;20545;-68
2023/05/20 03:13:01;;;;;;;7.87;5.40;;;14.00;31.90;;;;;;5045783;28;20561;-69
2023/05/20 03:15:28;;;;;;;8.70;5.80;;;14.00;31.90;;;;;;5045480;28;20477;-68
2023/05/20 03:17:55;;;;;;;8.53;5.60;;;14.00;32.10;;;;;;5042701;28;20450;-68
2023/05/20 03:20:22;;;;;;;9.33;5.77;;;14.00;32.00;;;;;;5047086;28;20474;-68
2023/05/20 03:22:49;;;;;;;8.10;5.53;;;14.00;32.20;;;;;;5044062;28;20478;-68
2023/05/20 03:25:17;;;;;;;7.90;5.33;;;14.00;32.20;;;;;;5047302;28;20470;-69
2023/05/20 03:27:45;;;;;;;8.87;5.90;;;14.10;32.30;;;;;;5045248;28;20464;-68
2023/05/20 03:30:12;;;;;;;8.50;5.90;;;14.00;32.30;;;;;;5046401;28;20515;-69
2023/05/20 03:32:39;;;;;;;8.13;5.60;;;14.00;32.40;;;;;;5045583;28;20497;-68
2023/05/20 03:35:08;;;;;;;7.93;5.30;;;14.00;32.30;;;;;;5047945;28;20474;-68
2023/05/20 03:37:35;;;;;;;7.80;5.30;;;14.00;32.40;;;;;;5044057;28;20864;-69
2023/05/20 03:40:02;;;;;;;8.53;5.10;;;14.00;32.50;;;;;;5048031;28;20470;-68
2023/05/20 03:42:33;;;;;;;7.47;5.50;;;14.00;32.50;;;;;;5042513;28;20490;-68
2023/05/20 03:45:00;;;;;;;7.47;5.00;;;14.00;32.60;;;;;;5042904;28;20485;-69
2023/05/20 03:47:26;;;;;;;8.97;6.03;;;14.00;32.70;;;;;;5045856;28;20695;-69
2023/05/20 03:49:53;;;;;;;10.47;6.07;;;14.00;32.90;;;;;;5046535;28;20843;-68
2023/05/20 03:52:20;;;;;;;7.90;5.13;;;13.90;33.10;;;;;;5043925;28;20568;-69
2023/05/20 03:54:47;;;;;;;9.50;6.00;;;13.90;33.10;;;;;;5041817;28;20466;-69
2023/05/20 03:57:13;;;;;;;8.20;5.67;;;13.90;33.10;;;;;;5046021;28;21134;-68
2023/05/20 03:59:41;;;;;;;8.93;5.87;;;13.90;33.20;;;;;;5045748;28;20961;-69
2023/05/20 04:02:08;;;;;;;9.53;5.60;;;14.00;33.20;;;;;;5043724;28;20489;-68
2023/05/20 04:04:36;;;;;;;9.17;5.97;;;13.90;33.20;;;;;;5039330;28;20857;-68
2023/05/20 04:07:03;;;;;;;8.97;5.87;;;14.00;33.30;;;;;;5041872;28;20979;-69
2023/05/20 04:09:30;;;;;;;8.17;5.73;;;14.00;33.30;;;;;;5042557;28;20470;-69
2023/05/20 04:11:57;;;;;;;9.03;5.77;;;14.00;33.30;;;;;;5040994;28;20482;-68
2023/05/20 04:14:23;;;;;;;9.87;6.83;;;14.00;33.30;;;;;;5045347;28;20464;-68
2023/05/20 04:16:51;;;;;;;8.80;5.80;;;14.00;33.40;;;;;;5044717;28;20469;-68
2023/05/20 04:19:19;;;;;;;8.40;6.50;;;14.00;33.40;;;;;;5043610;28;20474;-68
2023/05/20 04:21:46;;;;;;;9.30;6.03;;;14.00;33.60;;;;;;5044769;28;21195;-69
2023/05/20 04:24:13;;;;;;;9.80;5.90;;;14.00;33.50;;;;;;5042871;28;20486;-67
2023/05/20 04:26:40;;;;;;;9.93;6.63;;;14.00;33.50;;;;;;5047550;28;20989;-68
2023/05/20 04:29:06;;;;;;;10.23;6.50;;;14.10;33.60;;;;;;5046436;28;20477;-67
2023/05/20 04:31:33;;;;;;;9.03;6.17;;;14.10;33.60;;;;;;5044684;28;20489;-68
2023/05/20 04:34:03;;;;;;;9.27;6.13;;;14.00;33.80;;;;;;5040504;28;20478;-68
2023/05/20 04:36:31;;;;;;;11.67;8.20;;;14.00;33.70;;;;;;5043528;28;20532;-68
2023/05/20 04:38:57;;;;;;;8.97;6.60;;;14.00;34.00;;;;;;5046288;28;20483;-68
2023/05/20 04:41:24;;;;;;;12.73;7.37;;;14.00;34.00;;;;;;5043518;28;20465;-68
2023/05/20 04:43:51;;;;;;;9.33;7.00;;;14.00;34.00;;;;;;5042337;28;20482;-67
2023/05/20 04:46:19;;;;;;;10.70;7.40;;;14.00;34.10;;;;;;5044145;28;20466;-67
2023/05/20 04:48:46;;;;;;;10.70;7.63;;;14.00;34.10;;;;;;5051691;28;20498;-68
2023/05/20 04:51:15;;;;;;;13.27;8.67;;;14.00;34.10;;;;;;5045969;28;20464;-68
2023/05/20 04:53:42;;;;;;;13.90;10.17;;;14.10;34.20;;;;;;5043117;28;20478;-68
2023/05/20 04:56:09;;;;;;;13.40;9.67;;;14.10;34.20;;;;;;5045721;28;20466;-69
2023/05/20 04:58:35;;;;;;;12.90;9.13;;;14.10;34.30;;;;;;5044629;28;20466;-68
2023/05/20 05:01:02;;;;;;;12.30;8.50;;;14.10;34.20;;;;;;5046249;28;20465;-67
2023/05/20 05:03:29;;;;;;;15.20;8.07;;;14.10;34.20;;;;;;5043812;28;20492;-68
2023/05/20 05:05:56;;;;;;;11.07;8.20;;;14.10;34.50;;;;;;5038860;28;20631;-68
2023/05/20 05:08:25;;;;;;;12.63;8.40;;;14.10;34.40;;;;;;5044889;28;20500;-67
2023/05/20 05:10:52;;;;;;;13.17;8.70;;;14.10;34.50;;;;;;5044003;28;20494;-69
2023/05/20 05:13:19;;;;;;;10.77;8.23;;;14.10;34.50;;;;;;5043509;28;20490;-69
2023/05/20 05:15:45;;;;;;;17.67;8.07;;;14.20;34.60;;;;;;5042827;28;20907;-69
2023/05/20 05:18:12;;;;;;;9.90;7.27;;;14.20;34.50;;;;;;5043182;28;20465;-68
2023/05/20 05:20:39;;;;;;;12.47;8.80;;;14.10;34.60;;;;;;5044383;28;20469;-69
2023/05/20 05:23:06;;;;;;;11.97;8.53;;;14.10;34.80;;;;;;5042375;28;20489;-68
2023/05/20 05:25:34;;;;;;;12.93;9.60;;;14.10;34.80;;;;;;5046365;28;20466;-68
2023/05/20 05:28:01;;;;;;;13.87;9.40;;;14.10;34.90;;;;;;5047237;28;21016;-68
2023/05/20 05:30:28;;;;;;;12.60;9.70;;;14.10;35.10;;;;;;5048409;28;20470;-68
2023/05/20 05:32:54;;;;;;;12.57;10.30;;;14.00;35.80;;;;;;5045517;28;20485;-69
2023/05/20 05:35:21;;;;;;;13.40;9.87;;;13.90;35.90;;;;;;5048061;28;20465;-69
2023/05/20 05:37:48;;;;;;;14.80;11.53;;;13.90;35.80;;;;;;5051678;28;20484;-68
2023/05/20 05:40:15;;;;;;;18.73;11.33;;;13.90;35.90;;;;;;5046784;28;20469;-68
2023/05/20 05:42:43;;;;;;;19.73;11.70;;;13.90;35.60;;;;;;5047362;28;21074;-68
2023/05/20 05:45:10;;;;;;;13.97;10.13;;;13.90;35.90;;;;;;5048737;28;20482;-67
2023/05/20 05:47:37;;;;;;;14.63;11.20;;;13.90;36.00;;;;;;5048039;28;20469;-69
2023/05/20 05:50:05;;;;;;;14.27;10.53;;;13.80;36.30;;;;;;5027496;28;20477;-69
2023/05/20 05:52:31;;;;;;;17.10;11.17;;;13.90;36.40;;;;;;5046238;28;20513;-69
2023/05/20 05:54:58;;;;;;;16.63;10.80;;;13.90;36.60;;;;;;5047671;28;20458;-68
2023/05/20 05:57:25;;;;;;;15.10;10.77;;;13.90;36.40;;;;;;5048238;28;20501;-68
2023/05/20 05:59:53;;;;;;;17.17;10.80;;;14.00;36.20;;;;;;5041907;28;20474;-68
2023/05/20 06:02:20;;;;;;;16.43;11.60;;;14.00;36.00;;;;;;5042703;28;20499;-68
2023/05/20 06:04:46;;;;;;;13.17;10.20;;;14.10;35.90;;;;;;5043603;28;21003;-68
2023/05/20 06:07:13;;;;;;;12.40;10.60;;;14.10;35.60;;;;;;5047835;28;20465;-69
2023/05/20 06:09:40;;;;;;;11.87;9.87;;;14.20;35.70;;;;;;5044828;28;20540;-68
2023/05/20 06:12:07;;;;;;;15.20;11.07;;;14.20;35.70;;;;;;5047603;28;20573;-68
2023/05/20 06:14:34;;;;;;;14.87;11.90;;;14.20;35.60;;;;;;5045979;28;20463;-68
2023/05/20 06:17:04;;;;;;;13.20;10.50;;;14.20;36.30;;;;;;5042516;28;20463;-68
2023/05/20 06:19:31;;;;;;;12.90;10.43;;;14.20;35.60;;;;;;5046274;28;20462;-69
2023/05/20 06:21:58;;;;;;;13.93;10.67;;;14.30;35.00;;;;;;5039722;28;20825;-69
2023/05/20 06:24:24;;;;;;;14.33;10.17;;;14.20;35.10;;;;;;5046996;28;20481;-69
2023/05/20 06:26:51;;;;;;;12.73;10.03;;;14.30;34.90;;;;;;5045611;28;20458;-69
2023/05/20 06:29:18;;;;;;;13.43;10.63;;;14.30;35.10;;;;;;5049651;28;20462;-67
2023/05/20 06:31:44;;;;;;;13.67;11.10;;;14.30;35.30;;;;;;5045594;28;20478;-68
2023/05/20 06:34:13;;;;;;;16.30;11.50;;;14.30;35.30;;;;;;5044405;28;20938;-68
2023/05/20 06:36:40;;;;;;;15.93;10.90;;;14.30;35.50;;;;;;5043920;28;20485;-68
2023/05/20 06:39:11;;;;;;;15.30;10.77;;;14.20;35.20;;;;;;5049018;28;20469;-69
2023/05/20 06:41:38;;;;;;;13.13;10.30;;;14.20;35.20;;;;;;5044142;28;20528;-69
2023/05/20 06:44:05;;;;;;;15.07;11.83;;;14.20;35.40;;;;;;5043250;28;20478;-69
2023/05/20 06:46:32;;;;;;;12.97;10.27;;;14.20;35.60;;;;;;5046585;28;20978;-68
2023/05/20 06:48:59;;;;;;;17.10;12.43;;;14.30;35.60;;;;;;5044937;28;20474;-69
2023/05/20 06:51:27;;;;;;;15.07;11.70;;;14.30;35.60;;;;;;5044623;28;20470;-70
2023/05/20 06:53:54;;;;;;;14.93;11.10;;;14.40;35.50;;;;;;5045180;28;21070;-68
2023/05/20 06:56:21;;;;;;;17.27;11.83;;;14.40;35.30;;;;;;5046418;28;20492;-69
2023/05/20 06:58:48;;;;;;;16.40;10.97;;;14.50;35.10;;;;;;5046442;28;20478;-69
2023/05/20 07:01:14;;;;;;;12.70;9.90;;;14.50;34.70;;;;;;5044100;28;20478;-69
2023/05/20 07:03:41;;;;;;;16.53;11.87;;;14.60;34.30;;;;;;5041854;28;20501;-69
2023/05/20 07:06:08;;;;;;;14.40;11.30;;;14.70;34.50;;;;;;5043569;28;20470;-69
2023/05/20 07:08:36;;;;;;;15.00;11.70;;;14.80;33.50;;;;;;5040996;28;20965;-69
2023/05/20 07:11:03;;;;;;;15.07;11.60;;;15.00;33.10;;;;;;5039792;28;20455;-69
2023/05/20 07:13:30;;;;;;;14.93;9.70;;;15.20;32.40;;;;;;5042962;28;20498;-69
2023/05/20 07:15:57;;;;;;;12.77;9.80;;;15.30;31.80;;;;;;5042642;28;20981;-69
2023/05/20 07:18:24;;;;;;;13.80;10.30;;;15.50;31.30;;;;;;5043048;28;20474;-69
2023/05/20 07:20:50;;;;;;;15.40;10.00;;;15.60;30.70;;;;;;5040201;28;20485;-70
2023/05/20 07:23:17;;;;;;;15.67;10.43;;;15.70;30.30;;;;;;5041019;28;20489;-69
2023/05/20 07:25:45;;;;;;;13.53;10.07;;;15.80;29.60;;;;;;5046038;28;21297;-70
2023/05/20 07:28:12;;;;;;;15.53;11.13;;;16.00;28.70;;;;;;5046469;28;20463;-69
2023/05/20 07:30:38;;;;;;;13.60;9.80;;;16.10;28.30;;;;;;5041792;28;21001;-69
2023/05/20 07:33:05;;;;;;;14.10;10.13;;;16.20;27.90;;;;;;5042378;28;20593;-68
2023/05/20 07:35:32;;;;;;;14.63;9.30;;;16.30;27.50;;;;;;5043090;28;20610;-68
2023/05/20 07:37:59;;;;;;;11.43;9.63;;;16.20;27.20;;;;;;5041081;28;20494;-68
2023/05/20 07:40:26;;;;;;;13.53;10.43;;;16.20;27.20;;;;;;5051073;28;20942;-69
2023/05/20 07:42:54;;;;;;;11.90;9.93;;;16.20;27.20;;;;;;5047374;28;20491;-67
2023/05/20 07:45:20;;;;;;;14.97;11.00;;;16.20;26.70;;;;;;5048158;28;20993;-69
2023/05/20 07:47:47;;;;;;;12.43;10.10;;;16.20;26.80;;;;;;5041103;28;20485;-69
2023/05/20 07:50:14;;;;;;;12.20;10.03;;;16.20;26.80;;;;;;5048075;28;20575;-69
2023/05/20 07:52:40;;;;;;;13.37;9.97;;;16.30;26.70;;;;;;5044156;28;20477;-69
2023/05/20 07:55:08;;;;;;;13.57;10.47;;;16.30;26.50;;;;;;5043047;28;20470;-69
2023/05/20 07:57:34;;;;;;;13.00;10.63;;;16.20;26.50;;;;;;5042579;28;20469;-69
2023/05/20 08:00:04;;;;;;;13.70;9.93;;;16.20;26.60;;;;;;5038258;28;20463;-68
2023/05/20 08:02:31;;;;;;;13.50;10.73;;;16.30;25.70;;;;;;5041016;28;20476;-68
2023/05/20 08:04:58;;;;;;;13.13;10.30;;;16.30;25.40;;;;;;5038943;28;20479;-69
2023/05/20 08:07:25;;;;;;;18.30;11.80;;;16.20;25.70;;;;;;5045238;28;20477;-68
2023/05/20 08:09:51;;;;;;;13.20;10.57;;;16.20;25.90;;;;;;5041405;28;20466;-69
2023/05/20 08:12:18;;;;;;;15.00;9.87;;;16.20;26.00;;;;;;5044490;28;20486;-69
2023/05/20 08:14:45;;;;;;;12.97;9.30;;;16.30;26.10;;;;;;5037450;28;21231;-68
2023/05/20 08:17:13;;;;;;;16.47;9.40;;;16.40;25.80;;;;;;5045502;28;20458;-69
2023/05/20 08:19:40;;;;;;;12.77;8.70;;;16.70;25.30;;;;;;5042734;28;20989;-68
2023/05/20 08:22:07;;;;;;;12.10;9.73;;;16.90;23.80;;;;;;5039039;28;20496;-68
2023/05/20 08:24:34;;;;;;;11.77;9.40;;;16.90;23.30;;;;;;5043928;28;20477;-69
2023/05/20 08:27:00;;;;;;;13.23;10.63;;;17.00;22.70;;;;;;5045431;28;20458;-69
2023/05/20 08:29:27;;;;;;;13.77;10.70;;;17.00;22.60;;;;;;5040823;28;20501;-69
2023/05/20 08:31:54;;;;;;;13.17;9.60;;;17.00;23.20;;;;;;5041163;28;20482;-67
2023/05/20 08:34:22;;;;;;;12.33;9.73;;;17.10;23.40;;;;;;5041143;28;20512;-67
2023/05/20 08:36:49;;;;;;;12.37;9.93;;;17.40;22.70;;;;;;5040539;28;20815;-67
2023/05/20 08:39:16;;;;;;;15.73;9.33;;;17.70;22.20;;;;;;5040238;28;20470;-66
2023/05/20 08:41:42;;;;;;;12.63;9.47;;;17.80;20.60;;;;;;5152525;22;20489;-66
2023/05/20 08:44:10;;;;;;;12.60;9.20;;;18.00;20.10;;;;;;5068728;28;20468;-66
2023/05/20 08:46:39;;;;;;;14.40;10.57;;;18.30;20.00;;;;;;5068958;28;20479;-66
2023/05/20 08:49:06;;;;;;;12.20;9.90;;;18.90;19.10;;;;;;5069115;28;20509;-66
2023/05/20 08:51:37;;;;;;;15.20;10.13;;;19.80;17.40;;;;;;5068151;28;20457;-65
2023/05/20 08:54:04;;;;;;;11.80;8.83;;;20.20;16.30;;;;;;5065514;28;20483;-66
2023/05/20 08:56:32;;;;;;;12.60;9.10;;;20.20;14.80;;;;;;5066777;28;20515;-66
2023/05/20 08:58:59;;;;;;;10.60;8.43;;;20.20;15.20;;;;;;5068613;28;21262;-65
2023/05/20 09:01:26;;;;;;;10.60;9.03;;;20.40;14.80;;;;;;5070144;28;20493;-66
2023/05/20 09:03:53;;;;;;;11.27;8.30;;;20.40;14.10;;;;;;5069962;28;20889;-66
2023/05/20 09:06:20;;;;;;;9.20;7.90;;;21.10;13.60;;;;;;5070555;28;20524;-66
2023/05/20 09:08:51;;;;;;;11.90;8.60;;;22.60;11.00;;;;;;5052443;28;20486;-66
2023/05/20 09:11:18;;;;;;;8.90;7.63;;;23.60;8.60;;;;;;5050278;28;20442;-65
2023/05/20 09:13:45;;;;;;;12.60;8.70;;;24.20;6.60;;;;;;5050045;28;20468;-66
2023/05/20 09:16:12;;;;;;;10.50;8.30;;;24.00;6.10;;;;;;5050636;28;21015;-66
2023/05/20 09:18:40;;;;;;;11.43;8.90;;;23.70;6.60;;;;;;5049940;28;20474;-67
2023/05/20 09:21:07;;;;;;;10.80;8.20;;;23.80;6.80;;;;;;5050113;28;20457;-67
2023/05/20 09:23:36;;;;;;;10.83;8.50;;;23.80;6.80;;;;;;5050000;28;21247;-65
2023/05/20 09:26:05;;;;;;;11.50;8.40;;;24.30;6.60;;;;;;5050293;28;20995;-65
2023/05/20 09:28:34;;;;;;;10.53;8.03;;;24.90;5.30;;;;;;5049467;28;20964;-67
2023/05/20 09:31:01;;;;;;;9.50;8.33;;;24.60;5.40;;;;;;5048946;28;20524;-66
2023/05/20 09:33:30;;;;;;;9.70;8.70;;;24.30;5.70;;;;;;5050719;28;21229;-66
2023/05/20 09:36:04;;;;;;;9.93;8.63;;;24.10;6.00;;;;;;5050666;28;20531;-67
2023/05/20 09:38:36;;;;;;;12.33;9.40;;;23.90;6.80;;;;;;5049305;28;20482;-66
2023/05/20 09:41:06;;;;;;;10.93;8.13;;;24.10;6.90;;;;;;5050560;28;20537;-67
2023/05/20 09:43:34;;;;;;;9.27;7.80;;;26.80;4.10;;;;;;5050385;28;21183;-64
2023/05/20 09:46:01;;;;;;;9.87;8.03;;;28.20;1.10;;;;;;5030235;28;20930;-63
2023/05/20 09:48:29;;;;;;;10.90;7.87;;;29.10;1.00;;;;;;5029653;28;20907;-64
2023/05/20 09:50:57;;;;;;;8.40;7.50;;;29.50;1.00;;;;;;5049331;28;20537;-65
2023/05/20 09:53:27;;;;;;;10.43;7.60;;;29.10;1.00;;;;;;5049806;28;20458;-63
2023/05/20 09:55:54;;;;;;;9.30;7.60;;;28.20;1.00;;;;;;5048532;28;20450;-67
2023/05/20 09:58:24;;;;;;;11.07;7.50;;;27.40;1.00;;;;;;5049823;28;21081;-65
2023/05/20 10:00:51;;;;;;;9.23;7.20;;;26.80;1.00;;;;;;5040729;28;20469;-67
2023/05/20 10:03:21;;;;;;;9.87;8.37;;;26.30;1.60;;;;;;5050704;28;20461;-64
2023/05/20 10:05:57;;;;;;;9.67;8.40;;;25.90;1.50;;;;;;5050392;28;20908;-65
2023/05/20 10:08:46;;;;;;;9.73;8.30;;;25.60;3.10;;;;;;5049541;28;20476;-64
2023/05/20 10:11:33;;;;;;;9.67;8.67;;;25.40;3.90;;;;;;5048126;28;20453;-64
2023/05/20 10:14:24;;;;;;;13.93;7.77;;;25.30;3.50;;;;;;5049049;28;20537;-65
2023/05/20 10:16:55;;;;;;;10.37;8.63;;;25.40;3.90;;;;;;5049111;28;20458;-66
2023/05/20 10:19:29;;;;;;;11.37;8.70;;;25.10;3.70;;;;;;5048945;28;20557;-67
2023/05/20 10:22:01;;;;;;;10.13;8.93;;;24.90;4.20;;;;;;5049098;28;20915;-65
2023/05/20 10:24:32;;;;;;;9.37;8.37;;;24.70;5.30;;;;;;5054657;28;20856;-67
2023/05/20 10:27:02;;;;;;;9.23;7.70;;;24.80;5.80;;;;;;5068877;28;20450;-67
2023/05/20 10:29:41;;;;;;;9.67;7.90;;;24.90;5.70;;;;;;5061502;28;20492;-65
2023/05/20 10:32:09;;;;;;;10.63;9.00;;;24.80;5.40;;;;;;5047280;28;20469;-72
2023/05/20 10:34:46;;;;;;;9.40;8.03;;;24.80;5.30;;;;;;5033344;28;20528;-72
2023/05/20 10:37:26;;;;;;;9.90;8.90;;;24.80;4.70;;;;;;5038198;28;20853;-72
2023/05/20 10:39:52;;;;;;;11.17;9.03;;;24.70;5.30;;;;;;5037266;28;20496;-70
2023/05/20 10:42:29;;;;;;;9.87;8.87;;;24.60;5.70;;;;;;5038258;28;20465;-71
2023/05/20 10:44:57;;;;;;;9.43;8.43;;;24.70;6.10;;;;;;5028277;28;20485;-70
2023/05/20 10:47:24;;;;;;;10.97;8.80;;;24.70;5.80;;;;;;5031877;28;20893;-72
2023/05/20 10:49:51;;;;;;;10.90;8.43;;;24.70;5.30;;;;;;5031856;28;20469;-72
2023/05/20 10:52:18;;;;;;;11.77;8.50;;;24.70;5.30;;;;;;5028189;28;20546;-72
2023/05/20 10:54:46;;;;;;;9.63;8.20;;;24.50;5.50;;;;;;5016791;28;21333;-72
2023/05/20 10:57:13;;;;;;;9.90;8.90;;;24.40;6.00;;;;;;5024107;28;20557;-72
2023/05/20 10:59:41;;;;;;;12.23;8.70;;;24.40;6.30;;;;;;5038255;28;20676;-72
2023/05/20 11:02:12;;;;;;;9.60;8.70;;;24.20;5.80;;;;;;5029837;28;21968;-72
2023/05/20 11:04:39;;;;;;;12.33;8.67;;;24.00;6.20;;;;;;5042805;28;20466;-72
2023/05/20 11:07:06;;;;;;;9.70;8.20;;;23.60;6.50;;;;;;5028943;28;20889;-72
2023/05/20 11:09:33;;;;;;;11.33;8.43;;;23.40;7.20;;;;;;5032397;28;20482;-73
2023/05/20 11:12:00;;;;;;;15.20;9.00;;;23.30;7.90;;;;;;5035290;28;21894;-73
2023/05/20 11:14:28;;;;;;;15.63;10.03;;;23.20;7.60;;;;;;5042636;28;20469;-73
2023/05/20 11:16:56;;;;;;;11.30;8.33;;;22.80;8.20;;;;;;5030438;28;20891;-72
2023/05/20 11:19:25;;;;;;;10.47;9.00;;;22.60;8.70;;;;;;5039867;28;20492;-72
2023/05/20 11:21:52;;;;;;;12.40;8.87;;;22.60;9.60;;;;;;5027329;28;20462;-72
2023/05/20 11:24:27;;;;;;;9.23;7.47;;;22.60;9.40;;;;;;5032620;28;20550;-71
2023/05/20 11:26:54;;;;;;;10.63;8.40;;;22.40;9.80;;;;;;5028047;28;20616;-71
2023/05/20 11:29:22;;;;;;;10.33;8.10;;;22.40;9.90;;;;;;5033001;28;20861;-71
2023/05/20 11:31:50;;;;;;;10.50;8.40;;;22.40;10.10;;;;;;5028840;28;20726;-71
2023/05/20 11:34:20;;;;;;;10.03;7.80;;;22.40;10.30;;;;;;5038655;28;20557;-71
2023/05/20 11:36:49;;;;;;;8.87;7.70;;;22.60;10.60;;;;;;5027240;28;21012;-72
2023/05/20 11:39:16;;;;;;;8.63;7.20;;;22.50;9.50;;;;;;5030426;28;20566;-72
2023/05/20 11:41:43;;;;;;;11.93;8.37;;;22.50;9.90;;;;;;5034697;28;21015;-72
2023/05/20 11:44:12;;;;;;;10.77;8.57;;;22.60;10.80;;;;;;5037466;28;20493;-72
2023/05/20 11:46:42;;;;;;;9.33;7.70;;;22.80;10.70;;;;;;5033367;28;20562;-73
2023/05/20 11:49:09;;;;;;;10.20;7.90;;;22.90;10.50;;;;;;5035964;28;20488;-72
2023/05/20 11:51:38;;;;;;;11.90;8.20;;;23.00;10.00;;;;;;5027814;28;21076;-72
2023/05/20 11:54:07;;;;;;;9.47;7.23;;;23.10;10.30;;;;;;5033330;28;20874;-72
2023/05/20 11:56:35;;;;;;;8.90;7.60;;;23.10;10.60;;;;;;5033212;28;20508;-72
2023/05/20 11:59:04;;;;;;;8.97;6.77;;;23.20;9.70;;;;;;5039268;28;20898;-72
2023/05/20 12:01:36;;;;;;;9.07;7.77;;;23.10;9.60;;;;;;5032207;28;20568;-72
2023/05/20 12:04:04;;;;;;;10.00;7.67;;;23.00;8.50;;;;;;5029696;28;20473;-67
2023/05/20 12:06:31;;;;;;;10.03;7.23;;;22.80;8.90;;;;;;5032572;28;20578;-68
2023/05/20 12:09:05;;;;;;;9.37;7.07;;;22.80;9.50;;;;;;5033044;28;21019;-67
2023/05/20 12:11:34;;;;;;;8.10;6.40;;;22.90;9.80;;;;;;5029210;28;20524;-68
2023/05/20 12:14:01;;;;;;;8.00;6.77;;;22.90;9.10;;;;;;5035228;28;20462;-67
2023/05/20 12:16:28;;;;;;;10.40;7.00;;;22.80;7.90;;;;;;5032517;28;20450;-68
2023/05/20 12:18:55;;;;;;;9.03;6.20;;;22.60;8.50;;;;;;5020785;28;20474;-67
2023/05/20 12:21:22;;;;;;;8.30;6.10;;;22.50;9.20;;;;;;5032400;28;20470;-68
2023/05/20 12:23:49;;;;;;;9.43;6.37;;;22.50;9.50;;;;;;5030813;28;20549;-68
2023/05/20 12:26:16;;;;;;;9.43;7.30;;;22.60;9.50;;;;;;5030058;28;20473;-66
2023/05/20 12:28:44;;;;;;;9.00;6.73;;;22.70;10.20;;;;;;5031713;28;21017;-66
2023/05/20 12:31:11;;;;;;;10.63;7.03;;;22.80;9.70;;;;;;5026068;28;21002;-66
2023/05/20 12:33:38;;;;;;;10.70;6.73;;;22.90;8.90;;;;;;5021794;28;20462;-68
2023/05/20 12:36:06;;;;;;;12.93;6.63;;;22.80;9.30;;;;;;5028141;28;20524;-70
2023/05/20 12:38:33;;;;;;;8.77;5.77;;;23.00;9.80;;;;;;5027927;28;20566;-68
2023/05/20 12:41:00;;;;;;;8.27;5.90;;;23.00;9.30;;;;;;5032899;28;20863;-67
2023/05/20 12:43:27;;;;;;;10.13;6.47;;;23.10;9.30;;;;;;5026598;28;20455;-67
2023/05/20 12:45:55;;;;;;;6.97;4.83;;;23.20;9.40;;;;;;5033476;28;20586;-67